Time;durP1;ratioP1;P1;durP2;ratioP2;P2;SDS_P1;SDS_P2;PMS_P1;PMS_P2;Temp;Humidity;BMP_temperature;BMP_pressure;BME280_temperature;BME280_humidity;BME280_pressure;Samples;Min_cycle;Max_cycle;Signal;HPM_P1;HPM_P2
2023/04/30 00:02:33;;;;;;;89.45;50.17;;;;;;;16.40;100.00;99587.19;5061003;28;20553;-82
2023/04/30 00:05:17;;;;;;;92.28;52.35;;;;;;;16.34;100.00;99578.28;5061377;28;20502;-82
2023/04/30 00:08:01;;;;;;;94.40;53.13;;;;;;;16.27;100.00;99577.53;5062009;28;20052;-82
2023/04/30 00:10:45;;;;;;;92.72;53.08;;;;;;;16.22;100.00;99583.50;5064332;28;20091;-82
2023/04/30 00:13:29;;;;;;;104.50;54.50;;;;;;;16.34;100.00;99580.13;5060197;28;20082;-82
2023/04/30 00:16:13;;;;;;;98.22;53.22;;;;;;;16.29;100.00;99570.19;5060489;28;20135;-81
2023/04/30 00:18:57;;;;;;;87.55;48.78;;;;;;;16.26;100.00;99570.63;5065178;28;20842;-82
2023/04/30 00:21:41;;;;;;;95.47;54.13;;;;;;;16.19;100.00;99580.47;5061206;28;20551;-81
2023/04/30 00:24:25;;;;;;;99.78;54.10;;;;;;;16.13;100.00;99574.22;5060815;28;20165;-82
2023/04/30 00:27:09;;;;;;;103.00;54.75;;;;;;;16.19;100.00;99569.88;5043799;28;20051;-81
2023/04/30 00:29:53;;;;;;;95.72;51.85;;;;;;;16.21;100.00;99573.13;5039270;28;20075;-81
2023/04/30 00:32:37;;;;;;;90.32;49.05;;;;;;;16.12;100.00;99567.28;5041212;28;20130;-82
2023/04/30 00:35:21;;;;;;;99.40;54.03;;;;;;;16.15;100.00;99574.78;5042233;28;20040;-80
2023/04/30 00:38:05;;;;;;;104.35;54.83;;;;;;;16.22;100.00;99574.75;5041134;28;20392;-80
2023/04/30 00:40:49;;;;;;;104.22;53.92;;;;;;;16.11;100.00;99569.16;5040560;28;20044;-80
2023/04/30 00:43:33;;;;;;;93.53;52.95;;;;;;;16.12;100.00;99565.47;5042086;28;20099;-79
2023/04/30 00:46:17;;;;;;;92.18;51.78;;;;;;;16.20;100.00;99567.00;5041432;28;20044;-79
2023/04/30 00:49:03;;;;;;;101.50;53.08;;;;;;;16.23;100.00;99565.75;5041282;28;20040;-79
2023/04/30 00:51:48;;;;;;;105.25;54.78;;;;;;;16.28;100.00;99563.25;5041623;28;20044;-80
2023/04/30 00:54:33;;;;;;;106.03;57.55;;;;;;;16.23;100.00;99563.13;5043991;28;20174;-80
2023/04/30 00:57:17;;;;;;;112.15;58.65;;;;;;;16.31;100.00;99565.50;5043967;28;20446;-80
2023/04/30 01:00:02;;;;;;;105.03;56.38;;;;;;;16.33;100.00;99563.44;5042258;28;20064;-80
2023/04/30 01:02:48;;;;;;;98.40;54.05;;;;;;;16.34;100.00;99559.75;5041880;28;20434;-78
2023/04/30 01:05:32;;;;;;;99.93;53.17;;;;;;;16.36;100.00;99554.22;5042720;28;20043;-78
2023/04/30 01:08:16;;;;;;;99.85;53.22;;;;;;;16.38;100.00;99546.84;5041819;28;20036;-78
2023/04/30 01:11:11;;;;;;;103.93;55.60;;;;;;;16.38;100.00;99552.97;5040950;28;20049;-78
2023/04/30 01:14:11;;;;;;;106.20;54.53;;;;;;;16.37;100.00;99546.06;5041265;28;20119;-78
2023/04/30 01:16:55;;;;;;;109.65;55.60;;;;;;;16.31;100.00;99556.72;5039343;28;20048;-78
2023/04/30 01:19:44;;;;;;;;;;;;;;;16.27;100.00;99549.22;5042398;28;20082;-79
2023/04/30 01:22:36;;;;;;;100.80;53.47;;;;;;;16.33;100.00;99544.91;5041585;28;19966;-79
2023/04/30 01:25:39;;;;;;;108.22;53.67;;;;;;;16.31;100.00;99548.78;5048389;28;20043;-77
2023/04/30 01:28:24;;;;;;;105.18;55.95;;;;;;;16.22;100.00;99541.13;5057965;28;20074;-78
2023/04/30 01:31:16;;;;;;;105.97;56.65;;;;;;;16.15;100.00;99542.22;5057120;28;20040;-78
2023/04/30 01:34:01;;;;;;;104.65;57.40;;;;;;;16.15;100.00;99531.63;5064216;28;20039;-78
2023/04/30 01:36:51;;;;;;;100.93;56.03;;;;;;;16.17;100.00;99538.31;5058310;28;20074;-78
2023/04/30 01:39:41;;;;;;;104.65;54.58;;;;;;;16.16;100.00;99527.94;5062291;28;20585;-78
2023/04/30 01:42:44;;;;;;;102.43;55.22;;;;;;;16.07;100.00;99528.22;5059588;28;20170;-78
2023/04/30 01:45:29;;;;;;;109.03;57.03;;;;;;;16.08;100.00;99537.00;5059706;28;20060;-78
2023/04/30 01:48:42;;;;;;;103.43;54.85;;;;;;;16.14;100.00;99533.47;5057201;28;20039;-78
2023/04/30 01:51:35;;;;;;;101.03;55.17;;;;;;;16.07;100.00;99527.44;5061293;28;20398;-79
2023/04/30 01:54:41;;;;;;;103.18;54.83;;;;;;;16.03;100.00;99534.19;5060557;28;20766;-79
2023/04/30 01:57:37;;;;;;;100.72;54.22;;;;;;;16.03;100.00;99529.69;5061206;28;20553;-79
2023/04/30 02:00:21;;;;;;;106.10;56.03;;;;;;;16.07;100.00;99527.44;5060135;28;20448;-80
2023/04/30 02:03:05;;;;;;;97.07;54.13;;;;;;;15.99;100.00;99528.50;5060415;28;20386;-79
2023/04/30 02:05:49;;;;;;;105.38;54.47;;;;;;;15.94;100.00;99529.16;5059656;28;20178;-79
2023/04/30 02:08:34;;;;;;;106.57;56.92;;;;;;;15.95;100.00;99522.03;5057109;28;20055;-79
2023/04/30 02:11:18;;;;;;;112.18;58.30;;;;;;;15.95;100.00;99520.19;5062694;28;20103;-79
2023/04/30 02:14:02;;;;;;;101.90;57.08;;;;;;;15.81;100.00;99508.06;5057084;28;20058;-79
2023/04/30 02:16:46;;;;;;;106.85;55.03;;;;;;;15.82;100.00;99514.97;5059516;28;20043;-79
2023/04/30 02:19:30;;;;;;;100.45;56.55;;;;;;;15.74;100.00;99520.56;5060756;28;20039;-79
2023/04/30 02:22:14;;;;;;;107.32;57.90;;;;;;;15.74;100.00;99512.63;5060380;28;20094;-80
2023/04/30 02:24:58;;;;;;;109.25;58.30;;;;;;;15.73;100.00;99508.34;5061422;28;20527;-80
2023/04/30 02:27:42;;;;;;;110.00;58.92;;;;;;;15.73;100.00;99508.34;5059247;28;20048;-79
2023/04/30 02:30:26;;;;;;;105.93;55.30;;;;;;;15.76;100.00;99513.19;5062218;28;20071;-79
2023/04/30 02:33:11;;;;;;;109.18;58.35;;;;;;;15.72;100.00;99512.81;5057070;28;20124;-79
2023/04/30 02:35:55;;;;;;;112.15;58.88;;;;;;;15.82;100.00;99502.56;5062152;28;20040;-79
2023/04/30 02:38:39;;;;;;;124.82;61.17;;;;;;;15.90;100.00;99511.28;5058624;28;20044;-78
2023/04/30 02:41:23;;;;;;;111.78;58.65;;;;;;;15.89;100.00;99504.34;5061406;28;20383;-79
2023/04/30 02:44:07;;;;;;;102.40;54.85;;;;;;;15.93;100.00;99508.22;5060653;28;20035;-80
2023/04/30 02:46:51;;;;;;;103.45;56.60;;;;;;;15.94;100.00;99507.19;5062324;28;20048;-80
2023/04/30 02:49:35;;;;;;;98.50;55.08;;;;;;;16.02;100.00;99498.94;5063140;28;20042;-80
2023/04/30 02:52:19;;;;;;;118.72;60.45;;;;;;;16.03;100.00;99499.78;5059878;28;20063;-80
2023/04/30 02:55:03;;;;;;;110.82;58.70;;;;;;;16.06;100.00;99497.47;5063965;28;20544;-79
2023/04/30 02:57:47;;;;;;;115.47;61.95;;;;;;;16.08;100.00;99489.31;5056057;28;20066;-79
2023/04/30 03:00:31;;;;;;;113.32;60.22;;;;;;;16.05;100.00;99487.91;5060831;28;20151;-80
2023/04/30 03:03:15;;;;;;;116.38;62.20;;;;;;;16.09;100.00;99499.69;5057426;28;20051;-79
2023/04/30 03:05:59;;;;;;;127.95;64.60;;;;;;;16.11;100.00;99494.19;5062202;28;20047;-78
2023/04/30 03:08:44;;;;;;;115.93;59.85;;;;;;;16.13;100.00;99492.13;5061791;28;20393;-78
2023/04/30 03:11:27;;;;;;;120.30;61.13;;;;;;;16.13;100.00;99498.22;5054754;28;20043;-79
2023/04/30 03:14:11;;;;;;;122.22;64.05;;;;;;;16.05;100.00;99490.56;5061514;28;20433;-79
2023/04/30 03:16:55;;;;;;;117.13;61.40;;;;;;;16.07;100.00;99490.34;5056617;28;20090;-78
2023/04/30 03:19:39;;;;;;;119.78;62.15;;;;;;;16.00;100.00;99490.41;5060640;28;20068;-78
2023/04/30 03:22:25;;;;;;;116.68;61.72;;;;;;;15.99;100.00;99489.59;5058215;28;20126;-79
2023/04/30 03:25:09;;;;;;;115.82;61.25;;;;;;;16.01;100.00;99484.09;5056234;28;20079;-79
2023/04/30 03:27:54;;;;;;;118.70;62.92;;;;;;;16.04;100.00;99490.78;5055548;28;20044;-79
2023/04/30 03:30:38;;;;;;;131.07;67.55;;;;;;;15.99;100.00;99483.50;5058457;28;20505;-78
2023/04/30 03:33:22;;;;;;;126.13;65.57;;;;;;;16.02;100.00;99483.06;5054936;28;20119;-78
2023/04/30 03:36:06;;;;;;;123.82;65.40;;;;;;;15.97;100.00;99475.75;5060220;28;20056;-78
2023/04/30 03:38:50;;;;;;;125.55;66.15;;;;;;;16.05;100.00;99479.97;5056325;28;20032;-80
2023/04/30 03:41:34;;;;;;;127.70;66.25;;;;;;;16.01;100.00;99484.09;5060849;28;20505;-80
2023/04/30 03:44:18;;;;;;;123.88;65.28;;;;;;;15.98;100.00;99474.72;5067329;28;20457;-81
2023/04/30 03:47:02;;;;;;;118.05;62.90;;;;;;;16.03;100.00;99479.38;5066220;28;20056;-80
2023/04/30 03:49:53;;;;;;;138.05;68.53;;;;;;;16.04;100.00;99482.84;5065437;28;20043;-80
2023/04/30 03:52:37;;;;;;;123.00;64.75;;;;;;;15.96;100.00;99481.28;5065021;28;20126;-78
2023/04/30 03:55:21;;;;;;;125.78;64.95;;;;;;;15.94;100.00;99484.16;5061213;28;20046;-79
2023/04/30 03:58:05;;;;;;;131.45;66.50;;;;;;;15.96;100.00;99482.09;5062357;28;20039;-79
2023/04/30 04:00:49;;;;;;;131.25;64.55;;;;;;;16.03;100.00;99482.03;5061674;28;20504;-80
2023/04/30 04:03:34;;;;;;;134.32;64.03;;;;;;;16.09;100.00;99475.06;5061665;28;20454;-81
2023/04/30 04:06:18;;;;;;;139.27;69.43;;;;;;;16.11;100.00;99484.41;5064747;28;20403;-81
2023/04/30 04:09:03;;;;;;;148.40;70.80;;;;;;;16.08;100.00;99479.53;5059158;28;20499;-79
2023/04/30 04:11:47;;;;;;;149.98;70.60;;;;;;;16.15;100.00;99483.97;5067707;28;20055;-80
2023/04/30 04:14:31;;;;;;;146.48;71.07;;;;;;;16.16;100.00;99472.34;5063647;28;20048;-80
2023/04/30 04:17:15;;;;;;;141.32;68.05;;;;;;;16.16;100.00;99480.28;5059907;28;20060;-81
2023/04/30 04:19:59;;;;;;;150.75;70.75;;;;;;;16.19;100.00;99479.84;5062893;28;20040;-79
2023/04/30 04:22:43;;;;;;;143.40;69.05;;;;;;;16.19;100.00;99474.53;5061138;28;20138;-80
2023/04/30 04:25:27;;;;;;;141.82;68.03;;;;;;;16.26;100.00;99476.09;5063106;28;20163;-79
2023/04/30 04:28:11;;;;;;;131.90;63.65;;;;;;;16.25;100.00;99486.88;5059369;28;20044;-79
2023/04/30 04:30:55;;;;;;;135.95;65.10;;;;;;;16.26;100.00;99480.56;5059012;28;20102;-81
2023/04/30 04:33:39;;;;;;;125.72;61.15;;;;;;;16.26;100.00;99481.38;5061254;28;20105;-81
2023/04/30 04:36:26;;;;;;;119.13;57.88;;;;;;;16.19;100.00;99479.84;5059017;28;20139;-82
2023/04/30 04:39:10;;;;;;;113.38;56.55;;;;;;;16.30;100.00;99473.78;5061932;28;20086;-82
2023/04/30 04:41:54;;;;;;;111.80;55.65;;;;;;;16.42;100.00;99474.66;5064710;28;20450;-82
2023/04/30 04:44:40;;;;;;;110.07;54.17;;;;;;;16.55;100.00;99472.91;5061499;28;20102;-83
2023/04/30 04:47:24;;;;;;;107.80;53.35;;;;;;;16.56;100.00;99470.00;5062335;28;20039;-81
2023/04/30 04:50:09;;;;;;;105.97;53.20;;;;;;;16.71;100.00;99474.13;5060415;28;20048;-81
2023/04/30 04:52:52;;;;;;;107.70;54.35;;;;;;;16.63;100.00;99469.94;5062984;28;20034;-81
2023/04/30 04:55:37;;;;;;;98.63;51.05;;;;;;;16.64;100.00;99460.16;5064729;28;20055;-81
2023/04/30 04:58:21;;;;;;;100.03;53.63;;;;;;;16.80;100.00;99469.31;5060513;28;20040;-81
2023/04/30 05:01:05;;;;;;;99.70;53.55;;;;;;;16.65;100.00;99465.22;5057680;28;20093;-80
2023/04/30 05:03:49;;;;;;;99.97;52.75;;;;;;;16.79;100.00;99454.44;5063636;28;20093;-81
2023/04/30 05:06:34;;;;;;;108.15;54.53;;;;;;;16.83;100.00;99459.06;5059628;28;20129;-80
2023/04/30 05:09:17;;;;;;;101.07;54.75;;;;;;;16.95;100.00;99460.94;5061900;28;20090;-79
2023/04/30 05:12:01;;;;;;;100.22;52.03;;;;;;;17.03;100.00;99457.19;5057965;28;20441;-78
2023/04/30 05:14:46;;;;;;;105.72;54.50;;;;;;;17.03;100.00;99465.16;5064323;28;20047;-78
2023/04/30 05:17:30;;;;;;;100.63;54.13;;;;;;;17.04;100.00;99464.94;5057185;28;20528;-78
2023/04/30 05:20:14;;;;;;;97.30;52.10;;;;;;;17.00;100.00;99458.47;5059813;28;20052;-78
2023/04/30 05:22:58;;;;;;;87.80;50.63;;;;;;;17.12;100.00;99458.50;5058532;28;20079;-78
2023/04/30 05:25:42;;;;;;;91.57;49.63;;;;;;;17.10;100.00;99457.91;5062105;28;20583;-77
2023/04/30 05:28:26;;;;;;;84.03;49.20;;;;;;;17.07;100.00;99461.00;5061187;28;20111;-77
2023/04/30 05:31:10;;;;;;;96.97;52.28;;;;;;;16.94;100.00;99452.19;5060210;28;20044;-77
2023/04/30 05:33:54;;;;;;;86.70;48.55;;;;;;;16.95;100.00;99448.50;5054680;28;20051;-77
2023/04/30 05:36:38;;;;;;;87.97;47.03;;;;;;;16.80;100.00;99453.41;5067754;28;20102;-77
2023/04/30 05:39:22;;;;;;;90.10;48.58;;;;;;;16.87;100.00;99458.63;5060960;28;20048;-78
2023/04/30 05:42:06;;;;;;;75.70;46.20;;;;;;;16.85;100.00;99450.88;5060057;28;20048;-76
2023/04/30 05:44:50;;;;;;;82.20;44.80;;;;;;;16.74;100.00;99443.72;5061931;28;20043;-77
2023/04/30 05:47:34;;;;;;;79.68;45.00;;;;;;;16.79;100.00;99449.13;5060119;28;20083;-77
2023/04/30 05:50:18;;;;;;;82.28;44.95;;;;;;;16.77;100.00;99443.25;5058654;28;20048;-77
2023/04/30 05:53:02;;;;;;;85.45;46.60;;;;;;;16.71;100.00;99450.25;5059706;28;20047;-77
2023/04/30 05:55:46;;;;;;;82.28;45.83;;;;;;;16.72;100.00;99457.19;5064037;28;20071;-76
2023/04/30 05:58:31;;;;;;;84.28;47.53;;;;;;;16.52;100.00;99452.16;5059217;28;20035;-77
2023/04/30 06:01:18;;;;;;;78.45;45.30;;;;;;;16.70;100.00;99449.47;5059827;28;20055;-77
2023/04/30 06:04:03;;;;;;;90.40;49.60;;;;;;;16.75;100.00;99458.59;5058590;28;20051;-78
2023/04/30 06:06:48;;;;;;;83.55;45.08;;;;;;;16.78;100.00;99466.06;5060960;28;20166;-78
2023/04/30 06:09:31;;;;;;;93.00;48.83;;;;;;;16.99;100.00;99468.25;5061063;28;20044;-81
2023/04/30 06:12:15;;;;;;;93.40;50.28;;;;;;;17.00;100.00;99463.78;5061127;28;20401;-80
2023/04/30 06:15:00;;;;;;;82.00;47.30;;;;;;;17.16;100.00;99467.59;5064307;28;20093;-80
2023/04/30 06:17:43;;;;;;;77.13;43.42;;;;;;;16.98;100.00;99461.34;5057461;28;20087;-82
2023/04/30 06:20:27;;;;;;;80.80;45.13;;;;;;;17.08;100.00;99466.09;5059532;28;20083;-80
2023/04/30 06:23:11;;;;;;;76.97;43.65;;;;;;;16.92;100.00;99462.22;5060477;28;20047;-80
2023/04/30 06:25:55;;;;;;;75.30;43.45;;;;;;;16.93;100.00;99469.13;5055746;28;20129;-78
2023/04/30 06:28:40;;;;;;;69.32;40.03;;;;;;;17.17;100.00;99463.09;5062133;28;20048;-80
2023/04/30 06:31:25;;;;;;;65.90;37.75;;;;;;;17.05;100.00;99474.50;5058481;28;20048;-81
2023/04/30 06:34:09;;;;;;;61.75;36.83;;;;;;;17.12;100.00;99466.44;5063259;28;20055;-80
2023/04/30 06:36:52;;;;;;;58.38;35.70;;;;;;;17.38;100.00;99465.22;5057493;28;20411;-80
2023/04/30 06:39:36;;;;;;;58.85;35.58;;;;;;;17.60;100.00;99466.50;5059470;28;20094;-83
2023/04/30 06:42:20;;;;;;;56.25;32.67;;;;;;;17.80;100.00;99466.97;5063966;28;20048;-81
2023/04/30 06:45:05;;;;;;;52.97;32.95;;;;;;;18.05;100.00;99457.97;5060948;28;20071;-82
2023/04/30 06:47:50;;;;;;;51.10;31.20;;;;;;;18.42;100.00;99462.97;5059735;28;20453;-81
2023/04/30 06:50:42;;;;;;;51.08;30.60;;;;;;;18.66;100.00;99456.75;5057726;28;20047;-82
2023/04/30 06:53:26;;;;;;;46.90;28.85;;;;;;;18.89;100.00;99463.84;5059816;28;20761;-83
2023/04/30 06:56:10;;;;;;;42.28;25.92;;;;;;;18.96;100.00;99467.13;5062644;28;20078;-81
2023/04/30 06:58:54;;;;;;;37.45;24.25;;;;;;;19.24;100.00;99457.50;5057232;28;20051;-81
2023/04/30 07:01:39;;;;;;;38.58;23.67;;;;;;;19.62;100.00;99457.84;5060230;28;20122;-83
2023/04/30 07:04:23;;;;;;;38.33;23.13;;;;;;;19.74;100.00;99470.22;5061375;28;20056;-77
2023/04/30 07:07:07;;;;;;;32.95;21.60;;;;;;;19.78;100.00;99464.19;5061003;28;20486;-82
2023/04/30 07:09:52;;;;;;;33.35;22.52;;;;;;;19.87;100.00;99464.56;5059834;28;20078;-83
2023/04/30 07:12:36;;;;;;;32.85;21.50;;;;;;;19.97;100.00;99458.59;5064684;28;20049;-82
2023/04/30 07:15:20;;;;;;;29.70;19.70;;;;;;;20.00;100.00;99462.63;5063625;28;20047;-80
2023/04/30 07:18:04;;;;;;;31.83;19.73;;;;;;;19.92;100.00;99456.66;5065426;28;20042;-79
2023/04/30 07:20:48;;;;;;;25.27;16.77;;;;;;;19.55;100.00;99449.19;5062291;28;20126;-79
2023/04/30 07:23:32;;;;;;;25.55;17.35;;;;;;;19.65;100.00;99456.53;5063820;28;20040;-80
2023/04/30 07:26:16;;;;;;;25.88;17.65;;;;;;;19.75;100.00;99459.34;5059146;28;20098;-83
2023/04/30 07:29:01;;;;;;;29.38;17.75;;;;;;;19.84;100.00;99455.19;5061600;28;20080;-84
2023/04/30 07:31:45;;;;;;;22.80;15.75;;;;;;;20.20;100.00;99454.09;5056044;28;20074;-80
2023/04/30 07:34:28;;;;;;;22.60;15.10;;;;;;;20.26;100.00;99448.56;5064600;28;20098;-82
2023/04/30 07:37:13;;;;;;;21.17;13.35;;;;;;;20.44;100.00;99446.63;5054944;28;20044;-78
2023/04/30 07:39:57;;;;;;;20.00;14.15;;;;;;;20.66;99.81;99443.94;5063883;28;20065;-79
2023/04/30 07:42:41;;;;;;;17.88;13.20;;;;;;;20.46;99.03;99443.72;5058943;28;20043;-79
2023/04/30 07:45:25;;;;;;;;;;;;;;;20.65;98.67;99454.84;5062240;28;20473;-78
2023/04/30 07:48:09;;;;;;;17.65;12.82;;;;;;;20.99;97.99;99452.00;5062122;28;20324;-78
2023/04/30 07:50:53;;;;;;;16.98;12.25;;;;;;;20.78;97.73;99450.97;5060720;28;20135;-79
2023/04/30 07:53:36;;;;;;;18.70;12.38;;;;;;;21.14;93.98;99447.88;5059915;28;20056;-78
2023/04/30 07:56:20;;;;;;;19.52;13.90;;;;;;;21.12;95.61;99445.44;5064119;28;20093;-82
2023/04/30 07:59:05;;;;;;;19.20;13.48;;;;;;;20.91;95.86;99444.44;5065125;28;20162;-82
2023/04/30 08:01:50;;;;;;;18.00;13.65;;;;;;;21.06;94.81;99446.47;5060840;28;20478;-83
2023/04/30 08:04:34;;;;;;;18.52;14.10;;;;;;;20.89;95.40;99452.72;5062068;28;20040;-83
2023/04/30 08:07:19;;;;;;;17.35;13.20;;;;;;;20.77;95.10;99460.03;5062668;28;20605;-82
2023/04/30 08:10:04;;;;;;;19.25;13.20;;;;;;;21.01;94.38;99455.22;5063860;28;20090;-81
2023/04/30 08:12:48;;;;;;;17.52;12.95;;;;;;;21.26;94.68;99451.97;5064856;28;20043;-82
2023/04/30 08:15:33;;;;;;;17.50;12.95;;;;;;;21.20;92.73;99447.63;5061240;28;20039;-79
2023/04/30 08:18:17;;;;;;;17.05;12.27;;;;;;;21.49;90.31;99446.50;5062276;28;20048;-80
2023/04/30 08:21:01;;;;;;;16.70;12.93;;;;;;;21.60;88.66;99455.38;5061457;28;20521;-80
2023/04/30 08:23:45;;;;;;;15.57;12.35;;;;;;;21.75;86.19;99447.50;5054853;28;20087;-79
2023/04/30 08:26:29;;;;;;;17.40;12.98;;;;;;;21.99;86.88;99447.06;5060694;28;20056;-81
2023/04/30 08:29:13;;;;;;;18.15;14.10;;;;;;;21.78;84.46;99446.97;5062331;28;20055;-83
2023/04/30 08:32:02;;;;;;;17.67;13.23;;;;;;;21.62;86.59;99445.28;5064227;28;20043;-76
2023/04/30 08:34:46;;;;;;;18.88;13.60;;;;;;;21.82;86.64;99437.41;5062145;28;20194;-76
2023/04/30 08:37:30;;;;;;;22.58;13.25;;;;;;;22.08;87.47;99445.53;5060614;28;20051;-77
2023/04/30 08:40:15;;;;;;;18.75;13.77;;;;;;;22.45;86.09;99441.09;5060310;28;20097;-77
2023/04/30 08:43:07;;;;;;;15.35;12.52;;;;;;;22.45;83.30;99443.78;5055550;28;20151;-79
2023/04/30 08:45:51;;;;;;;15.45;11.32;;;;;;;22.23;81.81;99444.00;5065604;28;20090;-79
2023/04/30 08:48:36;;;;;;;15.75;11.05;;;;;;;22.16;80.93;99443.41;5056412;28;20584;-80
2023/04/30 08:51:21;;;;;;;16.48;13.00;;;;;;;22.18;79.55;99442.09;5059316;28;20052;-81
2023/04/30 08:54:05;;;;;;;15.55;12.40;;;;;;;22.09;77.84;99446.31;5057884;28;20091;-82
2023/04/30 08:56:49;;;;;;;14.98;11.57;;;;;;;22.43;79.51;99447.78;5058641;28;20048;-78
2023/04/30 08:59:33;;;;;;;18.88;12.45;;;;;;;22.46;77.52;99444.59;5061350;28;20040;-79
2023/04/30 09:02:16;;;;;;;17.95;13.15;;;;;;;22.30;78.17;99438.38;5058632;28;20056;-79
2023/04/30 09:05:01;;;;;;;15.15;12.32;;;;;;;21.88;76.13;99442.75;5055860;28;20044;-80
2023/04/30 09:07:48;;;;;;;15.70;12.00;;;;;;;22.11;77.82;99447.69;5059662;28;20048;-82
2023/04/30 09:10:33;;;;;;;18.20;14.23;;;;;;;21.97;79.10;99450.03;5059232;28;20056;-83
2023/04/30 09:13:17;;;;;;;16.27;13.13;;;;;;;22.57;75.84;99453.47;5060627;28;20059;-79
2023/04/30 09:16:01;;;;;;;17.98;13.40;;;;;;;23.04;77.51;99446.31;5054898;28;20052;-80
2023/04/30 09:18:46;;;;;;;17.38;14.05;;;;;;;23.44;76.50;99452.75;5056284;28;20537;-81
2023/04/30 09:21:35;;;;;;;18.95;14.15;;;;;;;23.42;74.11;99451.41;5057839;28;20047;-79
2023/04/30 09:24:20;;;;;;;22.00;15.13;;;;;;;23.70;75.64;99443.84;5059856;28;20131;-79
2023/04/30 09:27:16;;;;;;;21.35;15.13;;;;;;;23.60;73.30;99445.47;5057347;28;20557;-79
2023/04/30 09:30:00;;;;;;;22.50;15.73;;;;;;;23.64;72.21;99440.38;5057318;28;20040;-79
2023/04/30 09:32:55;;;;;;;20.65;16.20;;;;;;;23.27;71.27;99441.50;5058762;28;20058;-83
2023/04/30 09:35:40;;;;;;;23.45;17.38;;;;;;;23.28;70.75;99443.13;5054475;28;20502;-82
2023/04/30 09:38:32;;;;;;;20.52;15.80;;;;;;;23.38;74.09;99446.59;5059482;28;20138;-82
2023/04/30 09:41:28;;;;;;;21.90;16.50;;;;;;;23.50;73.00;99440.94;5059748;28;20067;-85
2023/04/30 09:44:37;;;;;;;22.75;16.83;;;;;;;23.21;71.87;99449.53;5056379;28;20089;-82
2023/04/30 09:47:21;;;;;;;18.77;16.77;;;;;;;23.24;72.30;99437.44;5056133;28;20043;-82
2023/04/30 09:50:06;;;;;;;23.20;17.33;;;;;;;22.60;73.48;99434.22;5054832;28;20043;-82
2023/04/30 09:52:52;;;;;;;21.77;17.77;;;;;;;22.38;73.12;99449.38;5056700;28;20095;-81
2023/04/30 09:55:37;;;;;;;19.77;16.95;;;;;;;22.17;72.98;99442.34;5061432;28;20048;-86
2023/04/30 09:58:23;;;;;;;19.52;16.67;;;;;;;22.59;76.05;99440.63;5056102;28;20042;-81
2023/04/30 10:01:10;;;;;;;23.77;17.05;;;;;;;22.57;71.76;99445.44;5061644;28;20070;-82
2023/04/30 10:03:54;;;;;;;23.90;18.15;;;;;;;22.55;72.64;99443.03;5059284;28;20079;-83
2023/04/30 10:06:39;;;;;;;23.48;17.92;;;;;;;22.36;71.83;99438.13;5060847;28;20050;-84
2023/04/30 10:09:28;;;;;;;27.83;17.95;;;;;;;22.27;73.21;99442.41;5059787;28;20047;-82
2023/04/30 10:12:15;;;;;;;27.50;18.67;;;;;;;22.26;71.33;99440.78;5062606;28;20047;-83
2023/04/30 10:15:16;;;;;;;24.27;19.25;;;;;;;22.35;72.09;99433.84;5062680;28;20048;-84
2023/04/30 10:18:06;;;;;;;25.52;18.52;;;;;;;22.32;71.31;99439.72;5059471;28;20043;-84
2023/04/30 10:20:53;;;;;;;24.52;17.38;;;;;;;22.44;72.21;99436.03;5063030;28;20039;-84
2023/04/30 10:23:42;;;;;;;22.40;16.95;;;;;;;22.73;70.98;99431.03;5056954;28;20051;-83
2023/04/30 10:26:28;;;;;;;22.30;16.33;;;;;;;22.39;70.21;99434.91;5059897;28;20059;-80
2023/04/30 10:29:14;;;;;;;20.40;16.10;;;;;;;22.48;69.67;99429.09;5061318;28;20147;-81
2023/04/30 10:32:00;;;;;;;21.15;15.73;;;;;;;22.89;70.73;99429.16;5058972;28;20035;-80
2023/04/30 10:34:56;;;;;;;20.33;15.07;;;;;;;23.05;67.82;99429.19;5060081;28;20548;-81
2023/04/30 10:37:44;;;;;;;22.40;15.77;;;;;;;23.19;67.98;99434.78;5060097;28;20087;-81
2023/04/30 10:40:28;;;;;;;19.95;15.85;;;;;;;23.64;67.08;99432.34;5057644;28;20040;-81
2023/04/30 10:43:12;;;;;;;20.52;16.10;;;;;;;23.64;68.95;99424.31;5057431;28;20035;-81
2023/04/30 10:45:59;;;;;;;23.30;17.17;;;;;;;23.71;66.67;99424.81;5057459;28;20043;-81
2023/04/30 10:48:45;;;;;;;23.83;16.17;;;;;;;23.76;68.31;99429.34;5060534;28;20068;-81
2023/04/30 10:51:50;;;;;;;25.20;18.75;;;;;;;23.56;69.28;99422.16;5057636;28;20121;-81
2023/04/30 10:54:36;;;;;;;18.92;15.80;;;;;;;23.80;69.25;99427.72;5062926;28;20048;-81
2023/04/30 10:57:21;;;;;;;15.95;12.20;;;;;;;22.89;66.54;99423.81;5065455;28;20105;-81
2023/04/30 11:00:05;;;;;;;12.55;10.07;;;;;;;23.07;65.78;99424.34;5061080;28;20107;-81
2023/04/30 11:02:55;;;;;;;9.55;8.15;;;;;;;23.08;64.05;99424.06;5059923;28;20428;-80
2023/04/30 11:05:39;;;;;;;11.27;8.60;;;;;;;23.10;66.85;99421.13;5060726;28;20095;-81
2023/04/30 11:08:38;;;;;;;9.60;7.82;;;;;;;23.66;66.30;99417.56;5056910;28;20059;-81
2023/04/30 11:11:22;;;;;;;10.65;6.88;;;;;;;23.30;66.13;99392.75;5053577;28;20133;-81
2023/04/30 11:14:06;;;;;;;8.30;6.18;;;;;;;23.18;66.67;99407.19;5059478;28;20044;-81
2023/04/30 11:16:52;;;;;;;7.72;6.50;;;;;;;23.24;66.38;99394.59;5058949;28;20391;-81
2023/04/30 11:19:46;;;;;;;8.63;7.32;;;;;;;22.85;67.25;99398.66;5058274;28;20575;-80
2023/04/30 11:22:34;;;;;;;13.77;7.88;;;;;;;23.10;70.27;99394.34;5057110;28;20083;-81
2023/04/30 11:25:18;;;;;;;9.07;8.10;;;;;;;23.10;68.97;99394.34;5061280;28;20140;-81
2023/04/30 11:28:03;;;;;;;10.25;8.82;;;;;;;22.89;69.07;99389.00;5060804;28;20074;-79
2023/04/30 11:30:58;;;;;;;9.10;7.85;;;;;;;23.42;68.82;99390.59;5057817;28;20048;-81
2023/04/30 11:33:42;;;;;;;10.02;8.13;;;;;;;23.68;66.29;99385.16;5062996;28;20040;-81
2023/04/30 11:36:30;;;;;;;11.15;7.05;;;;;;;23.41;65.43;99388.19;5055157;28;20036;-80
2023/04/30 11:39:16;;;;;;;13.23;7.05;;;;;;;23.71;65.66;99386.50;5057733;28;20497;-81
2023/04/30 11:42:01;;;;;;;7.68;6.47;;;;;;;23.98;64.81;99375.41;5056048;28;20128;-81
2023/04/30 11:44:46;;;;;;;12.35;7.80;;;;;;;24.14;64.66;99378.00;5062847;28;20070;-81
2023/04/30 11:47:44;;;;;;;9.95;7.40;;;;;;;24.18;65.64;99385.25;5061191;28;20094;-80
2023/04/30 11:50:32;;;;;;;10.15;7.93;;;;;;;24.34;63.77;99382.47;5059868;28;20079;-81
2023/04/30 11:53:16;;;;;;;9.93;8.63;;;;;;;24.31;63.39;99386.50;5060417;28;20417;-81
2023/04/30 11:56:03;;;;;;;10.57;9.30;;;;;;;24.18;63.46;99385.25;5052764;28;20047;-81
2023/04/30 11:58:49;;;;;;;11.30;9.63;;;;;;;24.36;63.57;99386.47;5060873;28;20496;-81
2023/04/30 12:01:33;;;;;;;13.70;10.63;;;;;;;24.40;63.58;99378.66;5061624;28;20051;-81
2023/04/30 12:04:18;;;;;;;13.98;11.73;;;;;;;24.14;62.25;99372.66;5060508;28;20043;-81
2023/04/30 12:07:02;;;;;;;15.80;11.70;;;;;;;23.99;62.91;99373.50;5061081;28;20113;-81
2023/04/30 12:09:53;;;;;;;17.00;12.85;;;;;;;23.45;63.53;99373.97;5063858;28;20048;-80
2023/04/30 12:12:38;;;;;;;17.10;13.35;;;;;;;23.92;63.03;99371.94;5061322;28;20055;-81
2023/04/30 12:15:27;;;;;;;17.13;12.80;;;;;;;23.88;62.64;99386.16;5060880;28;20044;-81
2023/04/30 12:18:12;;;;;;;16.80;14.05;;;;;;;23.81;65.23;99370.38;5063007;28;20039;-81
2023/04/30 12:20:57;;;;;;;18.13;14.38;;;;;;;24.12;64.83;99374.81;5063149;28;20411;-80
2023/04/30 12:23:41;;;;;;;19.00;15.20;;;;;;;24.32;64.39;99360.50;5063920;28;20506;-81
2023/04/30 12:26:34;;;;;;;27.52;17.48;;;;;;;24.61;65.48;99365.91;5060853;28;20073;-81
2023/04/30 12:29:19;;;;;;;22.25;16.23;;;;;;;24.23;64.18;99354.91;5057078;28;20402;-81
2023/04/30 12:32:04;;;;;;;21.80;16.50;;;;;;;24.34;64.99;99350.28;5064359;28;20043;-82
2023/04/30 12:34:48;;;;;;;19.83;15.40;;;;;;;24.41;64.11;99349.97;5057916;28;20043;-81
2023/04/30 12:37:32;;;;;;;20.27;15.43;;;;;;;24.80;64.09;99341.13;5054767;28;20152;-81